»·PEaware :: DAL86 KSLC-KLAS

DAL86 :: KSLC-KLAS

FLIGHT INFORMATION

Flight Status: Arrived
Operator:
Delta Air Lines
More flights by this operator :: More flights under this callsign
Pilot: Ernesto F. (37009)
Aircraft: BOEING 737-900
(B739)
More flights by this aircraft type
Origin: KSLC Salt Lake City Intl
United States
Destination: KLAS Harry Reid Intl
United States
More flights between these airports :: More routes between these airports
Route: ZIONZ1 EHK STEWW CHOWW2
File this flight plan on PilotEdge
Remarks: RMK / SIMBRIEF
Altitude:
(Current/Filed)
32,000ft
Speed:
(Current/Filed)
433kts
Departed: 01-Aug-23 06:41 PM
Arrived: 01-Aug-23 07:37 PM
Distance/Time
Traveled:
320nm/0:55
Distance/Time
To Go:
Arrived

Flight Plot

Page will automatically refresh every two minutes.

Flight plan parsing failed; only flown route is shown


Map Options




Map Legend


Flown Route
Filed Route
Departure Airport
Arrival Airport
Navaid (VOR, NDB)
Fix

Horizontal Profiles

Position Reports

Time Latitude Longitude Heading Altitude Ground
Speed
01-Aug-23 18:27 40.789398 -111.958872 138 4234ft 0kts
01-Aug-23 18:28 40.789398 -111.958872 138 4234ft 0kts
01-Aug-23 18:29 40.789398 -111.958872 138 4234ft 0kts
01-Aug-23 18:30 40.789398 -111.958872 138 4234ft 0kts
01-Aug-23 18:31 40.789398 -111.958872 138 4234ft 0kts
01-Aug-23 18:32 40.789398 -111.958872 138 4234ft 0kts
01-Aug-23 18:33 40.789398 -111.958872 138 4234ft 0kts
01-Aug-23 18:34 40.789398 -111.958872 138 4234ft 0kts
01-Aug-23 18:35 40.789398 -111.958872 138 4234ft 0kts
01-Aug-23 18:36 40.789398 -111.958872 138 4234ft 0kts
01-Aug-23 18:37 40.790061 -111.958685 312 4232ft 0kts
01-Aug-23 18:38 40.792669 -111.960034 1 4230ft 29kts
01-Aug-23 18:39 40.797362 -111.960007 359 4226ft 19kts
01-Aug-23 18:40 40.795453 -111.962069 178 4226ft 71kts
01-Aug-23 18:41 40.753736 -111.959251 163 5599ft 176kts
01-Aug-23 18:42 40.700115 -111.944677 170 6736ft 219kts
01-Aug-23 18:43 40.628773 -111.943262 182 7783ft 283kts
01-Aug-23 18:44 40.547691 -111.947920 181 10125ft 300kts
01-Aug-23 18:45 40.453704 -111.951936 178 10671ft 373kts
01-Aug-23 18:46 40.343097 -111.943885 176 11653ft 409kts
01-Aug-23 18:47 40.228379 -111.944161 188 13329ft 418kts
01-Aug-23 18:48 40.111857 -111.963340 186 14845ft 422kts
01-Aug-23 18:49 39.994491 -111.980393 186 16183ft 427kts
01-Aug-23 18:50 39.875656 -111.997712 186 17305ft 434kts
01-Aug-23 18:51 39.754524 -112.015350 187 18385ft 441kts
01-Aug-23 18:52 39.632127 -112.033101 186 19337ft 444kts
01-Aug-23 18:53 39.509022 -112.050900 186 20221ft 447kts
01-Aug-23 18:54 39.384537 -112.068703 186 21023ft 451kts
01-Aug-23 18:55 39.259443 -112.086424 186 22129ft 444kts
01-Aug-23 18:56 39.142673 -112.105714 196 24318ft 419kts
01-Aug-23 18:57 39.036765 -112.175851 209 24658ft 438kts
01-Aug-23 18:58 38.929621 -112.253323 209 25418ft 442kts
01-Aug-23 18:59 38.822285 -112.331034 209 26109ft 444kts
01-Aug-23 19:00 38.713745 -112.409497 209 26144ft 452kts
01-Aug-23 19:01 38.603705 -112.488760 209 26068ft 458kts
01-Aug-23 19:02 38.492079 -112.568877 209 26085ft 461kts
01-Aug-23 19:03 38.379642 -112.649286 209 26113ft 464kts
01-Aug-23 19:04 38.266978 -112.729568 209 26124ft 465kts
01-Aug-23 19:05 38.153774 -112.809948 208 26099ft 466kts
01-Aug-23 19:06 38.040353 -112.890195 208 26077ft 466kts
01-Aug-23 19:07 37.927101 -112.970043 208 26169ft 466kts
01-Aug-23 19:08 37.813677 -113.049745 208 26262ft 466kts
01-Aug-23 19:09 37.705147 -113.139361 214 26282ft 466kts
01-Aug-23 19:10 37.598525 -113.231984 213 26244ft 466kts
01-Aug-23 19:11 37.491378 -113.324484 213 26141ft 466kts
01-Aug-23 19:12 37.384698 -113.416281 213 26056ft 466kts
01-Aug-23 19:13 37.277709 -113.508041 213 26070ft 466kts
01-Aug-23 19:14 37.163689 -113.585038 203 26102ft 465kts
01-Aug-23 19:15 37.046113 -113.652144 204 26109ft 465kts
01-Aug-23 19:16 36.928586 -113.720724 204 26073ft 465kts
01-Aug-23 19:17 36.811676 -113.788905 204 26029ft 463kts
01-Aug-23 19:18 36.699617 -113.854067 204 23385ft 453kts
01-Aug-23 19:19 36.588413 -113.922669 219 20401ft 438kts
01-Aug-23 19:20 36.513508 -114.039430 231 17641ft 426kts
01-Aug-23 19:21 36.445769 -114.148648 231 16903ft 369kts
01-Aug-23 19:22 36.387267 -114.242338 230 16503ft 319kts
01-Aug-23 19:23 36.333170 -114.327103 230 15149ft 311kts
01-Aug-23 19:24 36.280353 -114.409796 230 13228ft 303kts
01-Aug-23 19:25 36.228488 -114.490171 230 11217ft 293kts
01-Aug-23 19:26 36.178345 -114.566949 230 9589ft 276kts
01-Aug-23 19:27 36.131324 -114.638820 230 8632ft 271kts
01-Aug-23 19:28 36.085019 -114.709460 230 8076ft 237kts
01-Aug-23 19:29 36.073591 -114.782912 268 7213ft 227kts
01-Aug-23 19:30 36.074269 -114.858179 268 6088ft 206kts
01-Aug-23 19:31 36.074049 -114.929797 269 5032ft 215kts
01-Aug-23 19:32 36.073866 -115.001864 269 3988ft 206kts
01-Aug-23 19:33 36.073735 -115.065268 271 3112ft 149kts
01-Aug-23 19:34 36.073666 -115.115691 271 2272ft 148kts
01-Aug-23 19:35 36.073671 -115.148851 270 2128ft 50kts
01-Aug-23 19:36 36.076678 -115.157801 317 2164ft 15kts

Navigation Log

Ident Type
Flight plan parsing failed, navigation log unavailable